Time;durP1;ratioP1;P1;durP2;ratioP2;P2;SDS_P1;SDS_P2;PMS_P1;PMS_P2;Temp;Humidity;BMP_temperature;BMP_pressure;BME280_temperature;BME280_humidity;BME280_pressure;Samples;Min_cycle;Max_cycle;Signal;HPM_P1;HPM_P2
2022/01/28 00:01:43;;;;;;;1.27;0.82;;;;;;;7.36;88.87;101025.31;4962800;28;20526;-73
2022/01/28 00:04:13;;;;;;;3.08;0.60;;;;;;;7.35;91.95;101031.78;4962655;28;20062;-72
2022/01/28 00:06:39;;;;;;;0.65;0.45;;;;;;;7.26;92.52;101013.06;4971222;28;20034;-73
2022/01/28 00:09:04;;;;;;;8.52;0.73;;;;;;;7.17;92.24;101015.81;4980283;28;20044;-72
2022/01/28 00:11:30;;;;;;;0.75;0.75;;;;;;;6.90;92.98;101026.94;4975186;28;20031;-72
2022/01/28 00:14:08;;;;;;;2.65;0.82;;;;;;;6.92;93.34;101032.78;4958968;28;20514;-74
2022/01/28 00:38:28;;;;;;;3.83;0.22;;;;;;;7.18;90.20;101060.22;4964002;28;20536;-73
2022/01/28 00:40:54;;;;;;;5.57;0.60;;;;;;;7.25;90.34;101055.16;4979546;28;20414;-74
2022/01/28 00:43:19;;;;;;;4.57;0.38;;;;;;;7.13;90.57;101064.97;4972740;28;20109;-72
2022/01/28 00:45:45;;;;;;;4.53;1.73;;;;;;;7.08;90.21;101076.63;4982402;28;20117;-74
2022/01/28 00:48:10;;;;;;;1.27;0.60;;;;;;;7.16;89.89;101075.06;4983030;28;20472;-73
2022/01/28 00:50:36;;;;;;;4.35;0.35;;;;;;;7.18;89.79;101075.53;4973177;28;20758;-73
2022/01/28 00:53:01;;;;;;;4.80;0.75;;;;;;;7.17;89.63;101098.81;4975085;28;20137;-73
2022/01/28 00:55:27;;;;;;;0.73;0.13;;;;;;;7.10;88.36;101087.81;4980850;28;20061;-72
2022/01/28 00:57:52;;;;;;;3.00;0.70;;;;;;;7.07;89.06;101095.69;4982416;28;20030;-72
2022/01/28 01:00:18;;;;;;;2.97;0.75;;;;;;;7.18;87.75;101104.97;4980188;28;20046;-72
2022/01/28 01:02:44;;;;;;;0.82;0.45;;;;;;;7.08;87.27;101116.03;4976264;28;20411;-72
2022/01/28 01:05:10;;;;;;;1.95;0.50;;;;;;;6.98;87.41;101122.50;4982575;28;20504;-72
2022/01/28 01:07:36;;;;;;;6.45;0.85;;;;;;;6.96;87.50;101118.56;4982569;28;20030;-72
2022/01/28 01:10:04;;;;;;;1.23;0.47;;;;;;;6.95;87.45;101123.13;4975252;28;20145;-71
2022/01/28 01:12:32;;;;;;;0.52;0.38;;;;;;;6.94;87.29;101128.81;4973691;28;20105;-73
2022/01/28 01:14:57;;;;;;;2.40;0.75;;;;;;;6.87;87.56;101136.56;4979595;28;20097;-72
2022/01/28 01:17:30;;;;;;;1.00;0.70;;;;;;;6.95;87.54;101130.41;4981050;28;20038;-72
2022/01/28 01:20:12;;;;;;;9.55;0.63;;;;;;;6.89;87.68;101134.34;4979825;28;20042;-73
2022/01/28 01:22:39;;;;;;;1.05;0.50;;;;;;;6.92;87.76;101133.69;4969447;28;20049;-73
2022/01/28 01:25:16;;;;;;;0.10;0.10;;;;;;;6.86;88.05;101134.97;4982066;28;20045;-72
2022/01/28 01:27:45;;;;;;;1.60;0.50;;;;;;;6.85;88.91;101144.88;4954874;28;20039;-72
2022/01/28 01:30:11;;;;;;;2.38;0.73;;;;;;;6.96;88.22;101156.84;4981600;28;20030;-73
2022/01/28 01:32:36;;;;;;;8.20;0.70;;;;;;;7.05;87.71;101156.81;4981066;28;20050;-72
2022/01/28 01:35:01;;;;;;;5.10;0.77;;;;;;;7.06;87.78;101156.53;4982268;28;20372;-73
2022/01/28 01:37:27;;;;;;;8.23;0.70;;;;;;;6.93;88.08;101170.84;4965218;28;20042;-74
2022/01/28 01:39:53;;;;;;;0.45;0.35;;;;;;;7.06;87.08;101179.81;4977799;28;20038;-73
2022/01/28 01:42:35;;;;;;;0.43;0.40;;;;;;;7.00;87.31;101171.16;4980643;28;20038;-72
2022/01/28 01:53:20;;;;;;;5.30;0.68;;;;;;;6.90;87.95;101189.44;4977602;28;20100;-72
2022/01/28 01:55:47;;;;;;;6.78;1.10;;;;;;;6.88;88.19;101208.50;4979607;28;20034;-72
2022/01/28 01:58:12;;;;;;;1.40;0.32;;;;;;;6.83;88.17;101189.13;4981195;28;20038;-72
2022/01/28 02:00:38;;;;;;;6.65;0.85;;;;;;;6.84;88.66;101204.09;4970562;28;20544;-72
2022/01/28 02:03:03;;;;;;;0.85;0.43;;;;;;;6.87;88.18;101190.09;4980341;28;20505;-72
2022/01/28 02:05:29;;;;;;;2.05;0.68;;;;;;;6.85;88.40;101206.44;4972996;28;20034;-73
2022/01/28 02:07:54;;;;;;;1.80;0.70;;;;;;;6.82;88.80;101196.38;4971432;28;20067;-72
2022/01/28 02:10:20;;;;;;;1.55;0.80;;;;;;;6.77;89.42;101190.41;4978274;28;20180;-71
2022/01/28 02:12:47;;;;;;;2.05;1.02;;;;;;;6.81;89.07;101204.72;4967051;28;20038;-73
2022/01/28 02:15:13;;;;;;;0.40;0.38;;;;;;;6.68;89.97;101198.41;4975758;28;20030;-72
2022/01/28 02:17:39;;;;;;;1.23;0.95;;;;;;;6.71;89.03;101208.50;4981361;28;20507;-72
2022/01/28 02:20:07;;;;;;;7.38;0.85;;;;;;;6.72;88.52;101223.44;4980688;28;20069;-72
2022/01/28 02:22:34;;;;;;;1.60;0.65;;;;;;;6.68;88.76;101233.19;4958641;28;20121;-72
2022/01/28 02:25:00;;;;;;;6.10;0.90;;;;;;;6.72;88.94;101236.03;4970524;28;20041;-71
2022/01/28 02:27:26;;;;;;;10.35;0.98;;;;;;;6.66;88.30;101230.06;4979967;28;20400;-74
2022/01/28 02:29:52;;;;;;;15.13;1.35;;;;;;;6.86;87.03;101248.19;4981926;28;20383;-72
2022/01/28 02:32:17;;;;;;;1.75;0.55;;;;;;;6.84;87.64;101247.69;4968040;28;20040;-72
2022/01/28 02:34:43;;;;;;;2.17;0.70;;;;;;;6.70;88.17;101246.25;4957594;28;20780;-72
2022/01/28 02:37:08;;;;;;;5.60;0.65;;;;;;;6.64;89.12;101250.22;4977527;28;20045;-73
2022/01/28 02:39:34;;;;;;;2.63;0.93;;;;;;;6.82;87.83;101257.94;4980907;28;20042;-73
2022/01/28 02:42:14;;;;;;;2.38;0.43;;;;;;;6.77;87.49;101266.13;4979957;28;20144;-73
2022/01/28 02:44:52;;;;;;;0.80;0.10;;;;;;;6.66;87.66;101267.50;4976385;28;20066;-71
2022/01/28 02:47:29;;;;;;;1.00;0.40;;;;;;;6.72;87.05;101276.97;4969673;28;20471;-72
2022/01/28 02:49:55;;;;;;;0.55;0.22;;;;;;;6.73;86.99;101275.88;4975527;28;20046;-72
2022/01/28 02:52:29;;;;;;;0.70;0.30;;;;;;;6.69;86.62;101280.28;4961616;28;20041;-71
2022/01/28 02:54:55;;;;;;;2.20;0.55;;;;;;;6.68;86.98;101300.09;4975949;28;20046;-72
2022/01/28 02:57:25;;;;;;;0.68;0.63;;;;;;;6.67;87.48;101298.53;4980135;28;20029;-73
2022/01/28 02:59:50;;;;;;;2.67;0.52;;;;;;;6.50;88.22;101295.84;4981248;28;20049;-71
2022/01/28 03:02:16;;;;;;;1.02;0.47;;;;;;;6.62;87.73;101290.63;4977431;28;20030;-72
2022/01/28 03:05:07;;;;;;;0.80;0.70;;;;;;;6.63;87.66;101291.44;4966968;28;20034;-72
2022/01/28 03:07:32;;;;;;;0.35;0.22;;;;;;;6.67;87.14;101295.88;4971818;28;20184;-73
2022/01/28 03:13:32;;;;;;;13.25;0.93;;;;;;;6.62;87.29;101305.94;4939773;28;20050;-72
2022/01/28 03:15:33;;;;;;;3.17;0.65;;;;;;;6.69;86.97;101307.03;4966896;28;20049;-72
2022/01/28 03:18:19;;;;;;;1.60;0.90;;;;;;;6.57;87.77;101306.84;4980269;28;20062;-73
2022/01/28 03:20:58;;;;;;;0.35;0.25;;;;;;;6.59;87.41;101311.88;4973704;28;20034;-73
2022/01/28 03:23:24;;;;;;;3.55;0.35;;;;;;;6.76;86.66;101318.06;4980285;28;20034;-72
2022/01/28 03:25:50;;;;;;;1.02;0.40;;;;;;;6.77;86.32;101330.34;4980371;28;20046;-73
2022/01/28 03:28:19;;;;;;;1.23;0.47;;;;;;;6.84;86.42;101332.56;4981058;28;20050;-72
2022/01/28 03:30:45;;;;;;;5.10;0.52;;;;;;;6.83;87.39;101333.69;4968546;28;20080;-72
2022/01/28 03:33:10;;;;;;;3.30;1.08;;;;;;;6.83;88.09;101331.75;4979755;28;20046;-72
2022/01/28 03:35:36;;;;;;;0.52;0.38;;;;;;;6.83;87.85;101349.72;4976117;28;20026;-73
2022/01/28 03:38:06;;;;;;;2.90;1.02;;;;;;;6.91;88.06;101359.66;4968256;28;20031;-72
2022/01/28 03:40:35;;;;;;;0.65;0.35;;;;;;;6.80;89.81;101369.88;4977423;28;20578;-72
2022/01/28 03:43:01;;;;;;;5.78;0.60;;;;;;;6.79;92.06;101376.34;4962434;28;20042;-71
2022/01/28 03:45:26;;;;;;;2.92;1.05;;;;;;;6.74;92.90;101371.09;4979292;28;20041;-71
2022/01/28 03:47:52;;;;;;;7.47;0.65;;;;;;;6.62;93.78;101378.94;4972856;28;20034;-72
2022/01/28 03:50:17;;;;;;;1.70;0.75;;;;;;;6.61;93.64;101381.94;4978799;28;20531;-71
2022/01/28 03:52:42;;;;;;;4.28;0.68;;;;;;;6.47;94.97;101390.06;4979406;28;20038;-72
2022/01/28 03:55:08;;;;;;;5.75;0.98;;;;;;;6.49;93.69;101393.22;4956935;28;20041;-72
2022/01/28 03:57:34;;;;;;;2.83;0.60;;;;;;;6.45;93.27;101396.81;4972142;28;20510;-74
2022/01/28 03:59:59;;;;;;;0.75;0.75;;;;;;;6.35;94.19;101400.53;4980059;28;20109;-72
2022/01/28 04:02:28;;;;;;;3.92;0.80;;;;;;;6.36;93.92;101399.47;4977736;28;20038;-72
2022/01/28 04:12:52;;;;;;;1.48;0.63;;;;;;;6.34;92.47;101421.19;4971490;28;20042;-74
2022/01/28 04:17:47;;;;;;;0.98;0.45;;;;;;;6.30;92.07;101436.25;4966619;28;20018;-72
2022/01/28 04:20:13;;;;;;;9.55;0.77;;;;;;;6.28;91.66;101441.13;4975086;28;20101;-73
2022/01/28 04:22:38;;;;;;;2.08;0.52;;;;;;;6.25;91.97;101448.97;4982331;28;20034;-73
2022/01/28 04:25:04;;;;;;;2.15;0.80;;;;;;;6.19;92.84;101453.63;4977878;28;20045;-72
2022/01/28 04:27:30;;;;;;;2.50;0.60;;;;;;;6.35;91.66;101452.16;4974671;28;20045;-72
2022/01/28 04:29:55;;;;;;;3.50;0.30;;;;;;;6.30;91.62;101459.53;4984891;28;20037;-72
2022/01/28 04:32:22;;;;;;;2.33;0.40;;;;;;;6.28;91.91;101456.38;4984442;28;20534;-73
2022/01/28 04:34:47;;;;;;;2.30;0.60;;;;;;;6.18;91.25;101478.00;4964664;28;20101;-73
2022/01/28 04:45:08;;;;;;;0.28;0.28;;;;;;;6.26;89.62;101483.41;4963676;28;20046;-73
2022/01/28 04:50:55;;;;;;;;;;;;;;;6.19;89.45;101499.09;4983128;28;20058;-72
2022/01/28 04:53:35;;;;;;;3.13;0.70;;;;;;;6.19;89.32;101490.28;4977716;28;19921;-73
2022/01/28 04:55:59;;;;;;;;;;;;;;;6.25;88.24;101505.88;4980516;28;20050;-72
2022/01/28 04:58:41;;;;;;;8.73;1.10;;;;;;;6.10;88.82;101510.81;4975793;28;19941;-73
2022/01/28 05:26:57;;;;;;;1.40;0.70;;;;;;;6.30;82.59;101558.47;4959064;28;20049;-73
2022/01/28 05:29:23;;;;;;;2.00;0.60;;;;;;;6.24;82.90;101563.16;4969048;28;20053;-72
2022/01/28 05:31:48;;;;;;;3.83;0.40;;;;;;;6.41;82.04;101567.06;4966874;28;20470;-73
2022/01/28 05:34:14;;;;;;;13.77;1.15;;;;;;;6.33;82.28;101571.22;4979636;28;20038;-73
2022/01/28 05:36:40;;;;;;;4.05;0.95;;;;;;;6.44;81.37;101572.59;4971183;28;20035;-72
2022/01/28 05:39:05;;;;;;;1.45;0.52;;;;;;;6.40;80.69;101576.97;4973465;28;20169;-73
2022/01/28 05:41:31;;;;;;;1.60;0.60;;;;;;;6.40;80.92;101579.63;4980475;28;20045;-74
2022/01/28 05:43:56;;;;;;;1.45;0.47;;;;;;;6.32;81.11;101588.38;4980322;28;20052;-73
2022/01/28 05:46:22;;;;;;;0.77;0.40;;;;;;;6.16;81.65;101587.13;4969494;28;20467;-74
2022/01/28 05:48:48;;;;;;;2.13;0.63;;;;;;;6.17;81.37;101604.78;4965155;28;20034;-73
2022/01/28 05:51:13;;;;;;;0.20;0.20;;;;;;;6.25;80.01;101596.81;4979615;28;20034;-73
2022/01/28 05:53:39;;;;;;;0.77;0.35;;;;;;;6.24;80.16;101597.13;4971272;28;20586;-72
2022/01/28 05:56:04;;;;;;;4.25;0.98;;;;;;;6.24;80.16;101597.13;4979628;28;20038;-72
2022/01/28 05:58:32;;;;;;;1.65;0.45;;;;;;;6.24;80.28;101602.47;4981396;28;20121;-73
2022/01/28 06:00:58;;;;;;;0.52;0.45;;;;;;;6.18;80.44;101607.16;4972967;28;20043;-73
2022/01/28 06:03:23;;;;;;;1.83;0.40;;;;;;;6.11;81.42;101606.78;4973706;28;20030;-73
2022/01/28 06:05:49;;;;;;;3.95;0.77;;;;;;;6.12;81.03;101620.91;4965824;28;20042;-74
2022/01/28 06:08:14;;;;;;;0.25;0.15;;;;;;;6.14;80.45;101624.88;4974621;28;20503;-74
2022/01/28 06:10:40;;;;;;;4.50;2.38;;;;;;;6.09;80.53;101633.03;4975832;28;20041;-71
2022/01/28 06:13:05;;;;;;;3.53;0.55;;;;;;;5.98;81.46;101630.88;4960739;28;20702;-73
2022/01/28 06:15:31;;;;;;;2.60;0.40;;;;;;;6.10;79.93;101628.44;4968442;28;20038;-74
2022/01/28 06:17:57;;;;;;;2.42;0.65;;;;;;;6.16;79.07;101632.59;4973489;28;20113;-72
2022/01/28 06:20:22;;;;;;;1.75;1.02;;;;;;;6.13;78.51;101639.34;4970851;28;20125;-73
2022/01/28 06:22:48;;;;;;;2.40;0.50;;;;;;;6.00;79.95;101639.38;4977240;28;20042;-72
2022/01/28 06:25:15;;;;;;;1.92;0.47;;;;;;;6.12;76.95;101666.38;4968367;28;20046;-72
2022/01/28 06:27:41;;;;;;;4.90;0.68;;;;;;;6.03;77.78;101670.84;4961236;28;20137;-72
2022/01/28 06:30:07;;;;;;;1.83;0.17;;;;;;;6.14;76.99;101674.88;4978320;28;20426;-73
2022/01/28 06:32:33;;;;;;;13.25;0.95;;;;;;;6.11;77.11;101680.84;4965027;28;20053;-73
2022/01/28 06:35:07;;;;;;;2.67;0.80;;;;;;;6.14;77.34;101683.69;4973902;28;20034;-73
2022/01/28 06:37:37;;;;;;;0.70;0.50;;;;;;;6.20;76.09;101689.72;4956458;28;20558;-73
2022/01/28 06:40:04;;;;;;;1.15;1.05;;;;;;;6.25;75.85;101689.66;4979438;28;20030;-74
2022/01/28 06:42:30;;;;;;;4.75;0.80;;;;;;;6.17;74.46;101695.69;4974365;28;20046;-73
2022/01/28 06:44:55;;;;;;;7.35;0.93;;;;;;;6.19;74.82;101688.16;4976750;28;20121;-72
2022/01/28 06:47:21;;;;;;;0.98;0.77;;;;;;;6.18;74.69;101699.94;4971829;28;20169;-72
2022/01/28 06:49:46;;;;;;;1.55;0.82;;;;;;;6.22;73.49;101698.25;4966720;28;20031;-72
2022/01/28 06:52:11;;;;;;;2.63;0.90;;;;;;;6.21;73.56;101704.69;4977692;28;20034;-71
2022/01/28 06:54:37;;;;;;;0.80;0.45;;;;;;;6.15;73.92;101714.72;4970465;28;20045;-72
2022/01/28 06:57:02;;;;;;;0.45;0.38;;;;;;;6.10;73.91;101722.03;4973017;28;20105;-71
2022/01/28 06:59:28;;;;;;;1.88;0.52;;;;;;;6.08;74.08;101725.00;4974001;28;20026;-71
2022/01/28 07:01:53;;;;;;;3.08;0.40;;;;;;;6.17;73.37;101722.44;4963890;28;20038;-70
2022/01/28 07:04:19;;;;;;;2.10;0.60;;;;;;;6.21;73.52;101734.88;4962361;28;20030;-71
2022/01/28 07:06:46;;;;;;;0.63;0.40;;;;;;;6.21;73.08;101734.88;4960656;28;20042;-71
2022/01/28 07:09:11;;;;;;;2.80;1.80;;;;;;;6.15;73.83;101746.81;4977200;28;20038;-71
2022/01/28 07:11:36;;;;;;;0.55;0.55;;;;;;;6.20;73.07;101748.56;4978222;28;20073;-72
2022/01/28 07:14:03;;;;;;;0.40;0.40;;;;;;;6.17;73.42;101758.00;4971954;28;20038;-72
2022/01/28 07:16:29;;;;;;;6.40;0.60;;;;;;;6.04;74.46;101756.09;4960455;28;20042;-71
2022/01/28 07:18:56;;;;;;;0.93;0.20;;;;;;;6.10;73.69;101765.59;4979513;28;20114;-71
2022/01/28 07:21:21;;;;;;;0.98;0.25;;;;;;;6.11;73.88;101766.41;4978666;28;20034;-71
2022/01/28 07:23:46;;;;;;;1.33;0.43;;;;;;;6.20;73.28;101764.59;4961693;28;20049;-72
2022/01/28 07:26:12;;;;;;;1.65;0.40;;;;;;;6.17;73.48;101762.53;4975747;28;20034;-72
2022/01/28 07:28:39;;;;;;;0.98;0.38;;;;;;;6.13;74.22;101797.09;4979365;28;20372;-72
2022/01/28 07:31:04;;;;;;;2.83;0.43;;;;;;;6.13;74.23;101794.44;4970092;28;20040;-71
2022/01/28 07:33:30;;;;;;;3.50;0.55;;;;;;;6.16;74.94;101801.84;4969636;28;20034;-72
2022/01/28 07:35:55;;;;;;;3.20;0.52;;;;;;;6.02;75.73;101798.38;4977799;28;20153;-71
2022/01/28 07:38:21;;;;;;;2.72;0.82;;;;;;;5.99;75.52;101812.34;4961043;28;20057;-72
2022/01/28 07:40:46;;;;;;;3.05;0.38;;;;;;;6.01;75.68;101804.81;4975005;28;20133;-71
2022/01/28 07:43:11;;;;;;;1.38;0.68;;;;;;;6.09;75.90;101816.69;4969265;28;20034;-72
2022/01/28 07:45:57;;;;;;;0.75;0.50;;;;;;;6.07;76.28;101826.91;4965474;28;20042;-72
2022/01/28 07:48:23;;;;;;;0.20;0.20;;;;;;;6.13;76.07;101828.41;4901402;29;20770;-70
2022/01/28 07:50:48;;;;;;;1.95;0.57;;;;;;;6.13;76.41;101823.03;4916527;29;20100;-72
2022/01/28 07:53:16;;;;;;;0.73;0.57;;;;;;;6.08;76.91;101842.63;4918280;29;20078;-71
2022/01/28 07:55:43;;;;;;;0.50;0.35;;;;;;;6.14;75.72;101838.78;4919584;29;20040;-71
2022/01/28 07:58:08;;;;;;;2.63;0.98;;;;;;;6.07;76.95;101845.63;4921311;29;20070;-71
2022/01/28 08:00:34;;;;;;;0.32;0.30;;;;;;;6.08;77.46;101853.34;4919995;29;20150;-72
2022/01/28 08:03:00;;;;;;;11.95;1.75;;;;;;;6.15;77.31;101859.09;4911904;29;20043;-72
2022/01/28 08:05:25;;;;;;;0.30;0.30;;;;;;;6.21;76.95;101868.59;4917269;29;20071;-71
2022/01/28 08:07:51;;;;;;;0.82;0.57;;;;;;;6.12;77.47;101873.06;4916755;29;20362;-71
2022/01/28 08:10:17;;;;;;;0.63;0.60;;;;;;;6.08;79.97;101884.63;4917497;29;20040;-72
2022/01/28 08:12:44;;;;;;;0.98;0.55;;;;;;;6.16;81.77;101876.72;4919481;29;20095;-69
2022/01/28 08:15:10;;;;;;;1.75;0.93;;;;;;;6.26;80.13;101873.06;4914074;29;20040;-71
2022/01/28 08:17:35;;;;;;;0.75;0.45;;;;;;;6.39;77.55;101883.00;4899483;29;20386;-72
2022/01/28 08:20:01;;;;;;;2.78;1.42;;;;;;;6.36;78.14;101902.31;4918400;29;20130;-69
2022/01/28 08:22:26;;;;;;;7.78;0.40;;;;;;;6.35;78.22;101911.41;4914695;29;20568;-72
2022/01/28 08:24:51;;;;;;;4.30;1.25;;;;;;;6.17;79.07;101909.63;4935545;28;20046;-71
2022/01/28 08:27:17;;;;;;;2.97;1.27;;;;;;;6.35;78.22;101912.22;4978569;28;20426;-72
2022/01/28 08:29:42;;;;;;;1.55;0.55;;;;;;;6.44;77.87;101912.34;4976489;28;20027;-69
2022/01/28 08:32:08;;;;;;;5.97;1.13;;;;;;;6.42;78.78;101927.88;4980918;28;20038;-71
2022/01/28 08:34:33;;;;;;;2.72;0.47;;;;;;;6.50;77.45;101927.22;4981366;28;20478;-71
2022/01/28 08:37:03;;;;;;;2.28;0.43;;;;;;;6.54;78.01;101932.75;4976979;28;20035;-72
2022/01/28 08:39:29;;;;;;;1.60;0.65;;;;;;;6.60;77.83;101928.91;4987327;28;20635;-72
2022/01/28 08:41:55;;;;;;;0.80;0.70;;;;;;;6.70;77.72;101934.84;4980572;28;20027;-71
2022/01/28 08:44:20;;;;;;;0.50;0.40;;;;;;;6.75;77.76;101948.16;4975619;28;20086;-71
2022/01/28 08:46:46;;;;;;;5.45;0.75;;;;;;;6.88;77.25;101959.94;4981855;28;20121;-71
2022/01/28 08:49:11;;;;;;;5.55;0.93;;;;;;;6.93;77.35;101959.84;4980930;28;20061;-71
2022/01/28 08:51:36;;;;;;;2.28;1.10;;;;;;;6.94;77.59;101962.22;4980587;28;20053;-72
2022/01/28 08:54:02;;;;;;;9.18;0.90;;;;;;;6.84;78.72;101962.41;4979494;28;20030;-71
2022/01/28 08:56:27;;;;;;;2.17;0.88;;;;;;;7.04;77.76;101966.59;4975786;28;20423;-70
2022/01/28 08:58:52;;;;;;;3.67;0.98;;;;;;;7.17;76.57;101979.97;4965873;28;20089;-70
2022/01/28 09:01:18;;;;;;;7.30;0.70;;;;;;;7.17;77.79;101982.66;4968153;28;20042;-71
2022/01/28 09:03:44;;;;;;;2.72;0.70;;;;;;;7.32;76.45;101979.66;4977795;28;20034;-71
2022/01/28 09:06:10;;;;;;;0.90;0.38;;;;;;;7.44;75.76;101987.19;4962811;28;20042;-71
2022/01/28 09:08:35;;;;;;;0.77;0.77;;;;;;;7.54;75.31;101988.84;4979852;28;20030;-71
2022/01/28 09:11:29;;;;;;;5.60;0.82;;;;;;;7.62;75.74;101994.31;4980390;28;20050;-71
2022/01/28 09:13:46;;;;;;;1.27;0.68;;;;;;;7.62;75.76;101998.88;4979270;28;20046;-72
2022/01/28 09:16:12;;;;;;;3.70;0.60;;;;;;;7.76;75.34;102011.13;4981186;28;20038;-71
2022/01/28 09:18:37;;;;;;;3.65;1.40;;;;;;;7.83;75.10;102019.56;4977623;28;20030;-70
2022/01/28 09:21:03;;;;;;;4.65;0.80;;;;;;;7.91;74.73;102021.53;4960235;28;20077;-70
2022/01/28 09:23:28;;;;;;;6.63;1.08;;;;;;;7.95;73.75;102019.03;4979750;28;20538;-71
2022/01/28 09:25:54;;;;;;;4.32;0.90;;;;;;;7.97;73.59;102028.38;4980549;28;20466;-71
2022/01/28 09:28:19;;;;;;;2.28;0.80;;;;;;;7.96;73.41;102025.97;4978672;28;21354;-71
2022/01/28 09:30:45;;;;;;;0.90;0.50;;;;;;;7.98;73.45;102046.03;4963225;28;20034;-72
2022/01/28 09:33:10;;;;;;;2.63;1.00;;;;;;;7.98;73.49;102053.28;4979564;28;20067;-71
2022/01/28 09:35:37;;;;;;;1.63;0.80;;;;;;;7.93;74.39;102048.84;4981232;28;20089;-71
2022/01/28 09:38:03;;;;;;;3.08;0.93;;;;;;;7.82;74.92;102057.41;4981768;28;20130;-71
2022/01/28 09:40:29;;;;;;;5.68;1.13;;;;;;;8.01;73.82;102071.47;4980666;28;20038;-71
2022/01/28 09:42:54;;;;;;;4.18;0.45;;;;;;;8.04;73.30;102076.22;4987115;28;20591;-71
2022/01/28 09:45:23;;;;;;;3.72;1.58;;;;;;;8.14;72.83;102074.13;4977901;28;20042;-71
2022/01/28 09:47:55;;;;;;;4.57;0.98;;;;;;;8.11;72.91;102082.75;4958230;28;20026;-70
2022/01/28 09:50:21;;;;;;;4.30;0.88;;;;;;;8.05;72.65;102092.00;4971077;28;20117;-72
2022/01/28 09:52:48;;;;;;;1.42;0.50;;;;;;;8.14;72.69;102086.72;4958442;28;20046;-71
2022/01/28 09:55:13;;;;;;;3.40;0.60;;;;;;;8.19;71.93;102084.72;4975242;28;20298;-72
2022/01/28 09:57:39;;;;;;;4.28;0.47;;;;;;;8.19;72.44;102090.09;4980515;28;20146;-71
2022/01/28 10:00:06;;;;;;;0.73;0.57;;;;;;;8.11;73.37;102095.38;4976356;28;20042;-71
2022/01/28 10:02:57;;;;;;;0.95;0.75;;;;;;;8.27;72.21;102093.97;4979568;28;20034;-71
2022/01/28 10:05:27;;;;;;;2.55;1.45;;;;;;;8.34;72.47;102102.41;4979557;28;20046;-71
2022/01/28 10:08:11;;;;;;;7.88;1.23;;;;;;;8.41;71.52;102101.97;4962101;28;20495;-71
2022/01/28 10:10:54;;;;;;;1.25;0.82;;;;;;;8.40;71.54;102100.41;4963949;28;20129;-72
2022/01/28 10:13:26;;;;;;;9.50;1.20;;;;;;;8.38;71.63;102102.59;4977217;28;20053;-71
2022/01/28 10:16:11;;;;;;;;;;;;;;;8.35;72.49;102103.19;4980126;28;20056;-71
2022/01/28 10:18:49;;;;;;;6.70;0.77;;;;;;;8.47;71.98;102106.94;4979362;28;20382;-70
2022/01/28 10:21:22;;;;;;;9.52;0.90;;;;;;;8.57;70.79;102106.69;4969498;28;20507;-70
2022/01/28 10:24:05;;;;;;;0.80;0.40;;;;;;;8.58;69.88;102116.31;4970208;28;20135;-71
2022/01/28 10:26:49;;;;;;;5.85;0.82;;;;;;;8.59;68.92;102117.13;4958859;28;20034;-71
2022/01/28 10:29:26;;;;;;;1.83;1.13;;;;;;;8.56;69.71;102110.47;4976016;28;20030;-71
2022/01/28 10:31:57;;;;;;;2.25;0.70;;;;;;;8.57;69.84;102095.16;4972129;28;20030;-71
2022/01/28 10:34:34;;;;;;;1.90;0.50;;;;;;;8.55;70.58;102105.41;4971709;28;20029;-71
2022/01/28 10:37:06;;;;;;;2.90;0.88;;;;;;;8.62;70.58;102108.44;4967835;28;20834;-70
2022/01/28 10:39:38;;;;;;;5.50;1.48;;;;;;;8.69;69.33;102106.16;4979893;28;20599;-70
2022/01/28 10:42:04;;;;;;;5.53;0.95;;;;;;;8.67;70.43;102095.69;4963988;28;20097;-71
2022/01/28 10:44:31;;;;;;;5.28;0.52;;;;;;;8.75;69.11;102103.00;4975758;28;20040;-72
2022/01/28 10:46:59;;;;;;;3.15;0.60;;;;;;;8.64;69.12;102096.31;4959993;28;20113;-72
2022/01/28 10:49:43;;;;;;;9.52;0.80;;;;;;;8.69;69.89;102098.88;4977754;28;20034;-71
2022/01/28 10:52:14;;;;;;;1.17;0.47;;;;;;;8.62;71.05;102103.09;4943482;28;20054;-70
2022/01/28 10:54:41;;;;;;;6.10;1.05;;;;;;;8.73;69.95;102091.78;4959173;28;20042;-71
2022/01/28 10:57:08;;;;;;;7.65;0.82;;;;;;;8.73;70.50;102097.16;4956441;28;20027;-70
2022/01/28 10:59:36;;;;;;;2.80;0.60;;;;;;;8.73;69.63;102107.91;4971497;28;20034;-71
2022/01/28 11:02:03;;;;;;;2.85;0.70;;;;;;;8.82;68.80;102103.41;4956847;28;20055;-70
2022/01/28 11:04:28;;;;;;;3.92;0.88;;;;;;;8.80;68.69;102110.16;4962335;28;20044;-70
2022/01/28 11:06:58;;;;;;;1.30;0.50;;;;;;;8.80;68.58;102110.97;4957569;28;20046;-70
2022/01/28 11:09:25;;;;;;;3.45;0.68;;;;;;;8.86;69.23;102123.19;4959407;28;20772;-70
2022/01/28 11:11:53;;;;;;;14.57;1.33;;;;;;;8.82;69.23;102116.81;4960462;28;20118;-70
2022/01/28 11:14:19;;;;;;;1.20;0.90;;;;;;;8.83;69.27;102134.50;4964509;28;20140;-72
2022/01/28 11:16:47;;;;;;;1.58;0.60;;;;;;;8.87;68.38;102126.63;4967733;28;20041;-70
2022/01/28 11:19:18;;;;;;;0.82;0.55;;;;;;;8.79;68.99;102136.22;4967007;28;20042;-71
2022/01/28 11:21:47;;;;;;;1.05;0.52;;;;;;;8.83;69.61;102139.88;4964284;28;20128;-70
2022/01/28 11:24:21;;;;;;;0.98;0.40;;;;;;;8.87;69.41;102146.22;4962426;28;20938;-71
2022/01/28 11:26:54;;;;;;;6.45;1.02;;;;;;;8.89;68.91;102148.59;4973194;28;20046;-72
2022/01/28 11:29:26;;;;;;;1.10;0.43;;;;;;;8.98;68.00;102154.84;4970162;28;20088;-71
2022/01/28 11:32:18;;;;;;;2.22;0.75;;;;;;;8.95;67.57;102156.25;4961971;28;21099;-72
2022/01/28 11:35:18;;;;;;;0.73;0.47;;;;;;;8.91;67.43;102157.16;4959442;28;20490;-70
2022/01/28 11:37:43;;;;;;;1.30;0.63;;;;;;;8.88;67.57;102155.09;4960306;28;20057;-71
2022/01/28 11:40:12;;;;;;;2.92;0.50;;;;;;;8.89;68.08;102162.84;4968136;28;20042;-71
2022/01/28 11:42:38;;;;;;;1.25;0.20;;;;;;;8.88;67.22;102165.84;4975647;28;20066;-71
2022/01/28 11:45:06;;;;;;;2.55;0.90;;;;;;;8.94;67.10;102165.38;4980260;28;20069;-71
2022/01/28 11:47:37;;;;;;;0.38;0.25;;;;;;;8.92;67.45;102172.19;4979838;28;20034;-70
2022/01/28 11:50:10;;;;;;;6.85;0.82;;;;;;;8.89;67.33;102175.47;4976113;28;20443;-71
2022/01/28 11:52:46;;;;;;;2.38;0.98;;;;;;;8.94;67.73;102175.38;4970368;28;20057;-71
2022/01/28 11:55:15;;;;;;;5.82;0.80;;;;;;;8.97;68.09;102180.13;4972226;28;20034;-69
2022/01/28 11:58:10;;;;;;;3.80;0.70;;;;;;;9.05;67.90;102188.25;4967518;28;20537;-71
2022/01/28 12:00:39;;;;;;;2.65;0.68;;;;;;;9.10;67.54;102188.09;4967697;28;20570;-72
2022/01/28 12:03:18;;;;;;;0.47;0.40;;;;;;;9.03;67.81;102192.34;4970797;28;20245;-71
2022/01/28 12:05:43;;;;;;;3.03;1.20;;;;;;;9.02;67.97;102194.22;4972766;28;20407;-71
2022/01/28 12:08:11;;;;;;;6.38;0.63;;;;;;;8.97;68.00;102190.84;4968349;28;20042;-71
2022/01/28 12:10:42;;;;;;;2.97;0.85;;;;;;;9.05;67.45;102193.63;4974375;28;20061;-71
2022/01/28 12:13:13;;;;;;;8.75;1.00;;;;;;;9.02;67.78;102199.59;4968079;28;20068;-71
2022/01/28 12:16:01;;;;;;;1.80;0.83;;;;;;;8.93;67.72;102201.44;4977271;28;20042;-71
2022/01/28 12:18:44;;;;;;;4.57;0.70;;;;;;;9.00;68.00;102193.72;4977926;28;20040;-70
2022/01/28 12:21:15;;;;;;;1.73;0.57;;;;;;;9.09;66.98;102193.78;4960241;28;20069;-70
2022/01/28 12:23:43;;;;;;;1.95;0.57;;;;;;;9.04;67.94;102186.63;4972379;28;20030;-70
2022/01/28 12:26:11;;;;;;;9.02;0.60;;;;;;;8.98;68.83;102185.19;4957877;28;20042;-71
2022/01/28 12:28:41;;;;;;;3.72;0.57;;;;;;;9.01;69.81;102195.34;4981594;28;21610;-71
2022/01/28 12:31:12;;;;;;;0.65;0.43;;;;;;;9.21;68.41;102195.94;4960558;28;20046;-71
2022/01/28 12:33:40;;;;;;;6.28;1.48;;;;;;;9.25;67.00;102194.22;4979726;28;20074;-70
2022/01/28 12:36:12;;;;;;;5.45;0.85;;;;;;;9.22;66.54;102184.06;4978630;28;20150;-70
2022/01/28 12:38:54;;;;;;;0.65;0.50;;;;;;;9.24;66.89;102179.97;4961073;28;20081;-70
2022/01/28 12:41:21;;;;;;;1.52;0.65;;;;;;;9.23;66.72;102186.47;4980002;28;20129;-70
2022/01/28 12:43:47;;;;;;;4.70;1.27;;;;;;;9.18;67.03;102180.41;4960230;28;20073;-71
2022/01/28 12:46:15;;;;;;;3.05;0.57;;;;;;;9.21;67.39;102185.19;4981288;28;20077;-70
2022/01/28 12:48:54;;;;;;;1.35;0.77;;;;;;;9.28;67.64;102182.84;4962746;28;20042;-69
2022/01/28 12:51:22;;;;;;;1.38;0.73;;;;;;;9.29;67.79;102192.50;4970587;28;20499;-70
2022/01/28 12:53:53;;;;;;;1.52;0.45;;;;;;;9.36;66.73;102190.16;4976970;28;20049;-69
2022/01/28 12:56:29;;;;;;;0.68;0.38;;;;;;;9.37;67.13;102191.75;4967808;28;20039;-69
2022/01/28 12:58:55;;;;;;;5.40;0.70;;;;;;;9.34;68.46;102192.34;4976347;28;20474;-69
2022/01/28 13:01:20;;;;;;;4.20;0.85;;;;;;;9.42;68.64;102186.25;4977523;28;20121;-71